Galway, Ireland
Current Conditions -  °F | °C
As of 5:00 AM on Wednesday 22 Oct 2014 (Local Time) from EINN Reporting Station
Broken Clouds Broken Clouds  
Wind Chill: 54°   Ceiling: 3800
Heat Index: 54°   Visibility: 6mi
Dew Point: 37°   Wind: 13mph
Humidity: 54%   Direction: 240°WSW
Pressure: 30.3"   Gusts: NA
Location:  53.28°N, 9.06°W
Report Text: EINN 220500Z 24011KT 9999 FEW030 BKN038 12/03 Q1026 NOSIG
Loading
Personal Weather Stations






























Interactive Weather Map
Tropical Storm Tracking
New forecast layout! Learn more

10-Day Weather Forecast

Advertisements
Track Severe Weather on mobile